Time;durP1;ratioP1;P1;durP2;ratioP2;P2;SDS_P1;SDS_P2;PMS_P1;PMS_P2;Temp;Humidity;BMP_temperature;BMP_pressure;BME280_temperature;BME280_humidity;BME280_pressure;Samples;Min_cycle;Max_cycle;Signal;HPM_P1;HPM_P2
2021/11/13 00:00:10;;;;;;;89.03;43.25;;;4.30;99.90;;;;;;2105640;28;20102;-75
2021/11/13 00:01:16;;;;;;;82.20;40.65;;;4.30;99.90;;;;;;2105749;28;20040;-73
2021/11/13 00:02:17;;;;;;;88.28;42.17;;;4.30;99.90;;;;;;2106193;28;20049;-72
2021/11/13 00:03:18;;;;;;;84.10;41.42;;;4.30;99.90;;;;;;2097703;28;20127;-75
2021/11/13 00:04:18;;;;;;;85.68;41.40;;;4.30;99.90;;;;;;2097866;28;20140;-73
2021/11/13 00:05:19;;;;;;;81.60;40.70;;;4.20;99.90;;;;;;2097210;28;20036;-73
2021/11/13 00:06:20;;;;;;;86.32;42.10;;;4.30;99.90;;;;;;2105910;28;20036;-74
2021/11/13 00:07:21;;;;;;;82.95;41.47;;;4.20;99.90;;;;;;2106737;28;20117;-73
2021/11/13 00:08:22;;;;;;;86.35;43.13;;;4.20;99.90;;;;;;2105625;28;20111;-74
2021/11/13 00:09:25;;;;;;;84.80;41.22;;;4.20;99.90;;;;;;2105974;28;20145;-74
2021/11/13 00:10:27;;;;;;;86.30;40.95;;;4.20;99.90;;;;;;2105425;28;20458;-75
2021/11/13 00:11:27;;;;;;;83.55;41.78;;;4.20;99.90;;;;;;2105724;28;20035;-72
2021/11/13 00:12:28;;;;;;;81.55;41.08;;;4.20;99.90;;;;;;2106823;28;20025;-75
2021/11/13 00:13:29;;;;;;;85.38;42.03;;;4.20;99.90;;;;;;2106028;28;20024;-72
2021/11/13 00:14:30;;;;;;;85.32;42.00;;;4.20;99.90;;;;;;2106017;28;20028;-73
2021/11/13 00:15:32;;;;;;;82.18;41.95;;;4.20;99.90;;;;;;2106460;28;20082;-74
2021/11/13 00:16:33;;;;;;;87.35;43.22;;;4.20;99.90;;;;;;2106167;28;20022;-73
2021/11/13 00:17:34;;;;;;;85.15;42.38;;;4.20;99.90;;;;;;2106595;28;20052;-74
2021/11/13 00:18:35;;;;;;;84.72;43.25;;;4.20;99.90;;;;;;2106714;28;20043;-74
2021/11/13 00:19:36;;;;;;;84.57;42.55;;;4.20;99.90;;;;;;2106738;28;20390;-73
2021/11/13 00:20:37;;;;;;;82.45;41.10;;;4.20;99.90;;;;;;2106334;28;20016;-74
2021/11/13 00:21:37;;;;;;;91.35;43.97;;;4.20;99.90;;;;;;2106002;28;20496;-73
2021/11/13 00:22:38;;;;;;;85.38;42.97;;;4.20;99.90;;;;;;2106155;28;20178;-75
2021/11/13 00:23:40;;;;;;;84.53;42.08;;;4.20;99.90;;;;;;2106100;28;20058;-73
2021/11/13 00:24:40;;;;;;;87.95;43.30;;;4.20;99.90;;;;;;2106924;28;20023;-74
2021/11/13 00:25:41;;;;;;;83.45;42.65;;;4.30;99.90;;;;;;2106393;28;20052;-74
2021/11/13 00:26:42;;;;;;;85.07;42.42;;;4.30;99.90;;;;;;2106717;28;20340;-74
2021/11/13 00:27:43;;;;;;;84.60;42.67;;;4.30;99.90;;;;;;2105853;28;20020;-74
2021/11/13 00:28:45;;;;;;;89.32;44.35;;;4.20;99.90;;;;;;2097729;28;20020;-74
2021/11/13 00:29:45;;;;;;;86.75;43.35;;;4.30;99.90;;;;;;2105931;28;20157;-73
2021/11/13 00:30:46;;;;;;;87.35;43.70;;;4.20;99.90;;;;;;2105106;28;20175;-74
2021/11/13 00:31:49;;;;;;;83.38;42.85;;;4.20;99.90;;;;;;2105345;28;20016;-73
2021/11/13 00:32:50;;;;;;;84.78;43.08;;;4.30;99.90;;;;;;2106478;28;20471;-73
2021/11/13 00:33:51;;;;;;;87.43;43.35;;;4.30;99.90;;;;;;2106833;28;20024;-73
2021/11/13 00:34:52;;;;;;;86.47;43.45;;;4.30;99.90;;;;;;2106584;28;20352;-72
2021/11/13 00:35:52;;;;;;;89.63;44.35;;;4.30;99.90;;;;;;2106425;28;20384;-74
2021/11/13 00:36:53;;;;;;;85.30;43.13;;;4.30;99.90;;;;;;2106395;28;20085;-74
2021/11/13 00:37:54;;;;;;;90.25;44.50;;;4.30;99.90;;;;;;2106398;28;20028;-75
2021/11/13 00:38:55;;;;;;;83.03;42.85;;;4.30;99.90;;;;;;2106029;28;20122;-75
2021/11/13 00:39:55;;;;;;;87.80;44.58;;;4.30;99.90;;;;;;2105682;28;20047;-78
2021/11/13 00:40:56;;;;;;;91.10;45.70;;;4.30;99.90;;;;;;2105473;28;20032;-75
2021/11/13 00:41:57;;;;;;;87.63;45.45;;;4.30;99.90;;;;;;2105590;28;20040;-74
2021/11/13 00:42:58;;;;;;;84.25;43.30;;;4.30;99.90;;;;;;2106130;28;20048;-74
2021/11/13 00:43:58;;;;;;;88.65;44.55;;;4.30;99.90;;;;;;2105826;28;20502;-75
2021/11/13 00:44:59;;;;;;;85.63;43.10;;;4.30;99.90;;;;;;2105855;28;20570;-74
2021/11/13 00:46:01;;;;;;;89.38;45.55;;;4.30;99.90;;;;;;2105786;28;20023;-75
2021/11/13 00:47:02;;;;;;;84.47;43.78;;;4.30;99.90;;;;;;2106462;28;20078;-74
2021/11/13 00:48:03;;;;;;;85.43;42.92;;;4.40;99.90;;;;;;2106378;28;20471;-75
2021/11/13 00:49:05;;;;;;;87.30;44.42;;;4.40;99.90;;;;;;2105632;28;20434;-75
2021/11/13 00:50:07;;;;;;;85.70;44.10;;;4.40;99.90;;;;;;2096869;28;20043;-74
2021/11/13 00:51:11;;;;;;;85.25;44.38;;;4.40;99.90;;;;;;2098071;28;20029;-75
2021/11/13 00:52:12;;;;;;;85.63;44.33;;;4.40;99.90;;;;;;2097543;28;20466;-74
2021/11/13 00:53:12;;;;;;;81.18;42.75;;;4.40;99.90;;;;;;2105766;28;20028;-73
2021/11/13 00:54:13;;;;;;;81.78;42.97;;;4.40;99.90;;;;;;2105810;28;20028;-74
2021/11/13 00:55:16;;;;;;;82.07;44.10;;;4.40;99.90;;;;;;2105650;28;20491;-74
2021/11/13 00:56:17;;;;;;;84.95;43.88;;;4.40;99.90;;;;;;2106473;28;20028;-74
2021/11/13 00:57:17;;;;;;;83.80;43.10;;;4.50;99.90;;;;;;2105478;28;20544;-73
2021/11/13 00:58:18;;;;;;;84.20;44.97;;;4.50;99.90;;;;;;2105477;28;20458;-73
2021/11/13 00:59:18;;;;;;;86.47;44.70;;;4.50;99.90;;;;;;2105719;28;20797;-74
2021/11/13 01:00:20;;;;;;;86.35;45.08;;;4.50;99.90;;;;;;2105085;28;20467;-74
2021/11/13 01:01:22;;;;;;;85.65;44.97;;;4.60;99.90;;;;;;2105895;28;20020;-73
2021/11/13 01:02:22;;;;;;;83.20;44.63;;;4.60;99.90;;;;;;2106473;28;20052;-73
2021/11/13 01:03:24;;;;;;;83.43;44.25;;;4.60;99.90;;;;;;2105887;28;20035;-73
2021/11/13 01:04:25;;;;;;;86.07;44.22;;;4.60;99.90;;;;;;2105908;28;20038;-74
2021/11/13 01:05:27;;;;;;;83.03;43.58;;;4.60;99.90;;;;;;2105918;28;20028;-74
2021/11/13 01:06:28;;;;;;;79.70;43.97;;;4.60;99.90;;;;;;2097621;28;20029;-74
2021/11/13 01:07:28;;;;;;;81.72;43.90;;;4.60;99.90;;;;;;2105445;28;20034;-73
2021/11/13 01:08:29;;;;;;;80.95;44.40;;;4.70;99.90;;;;;;2106251;28;20551;-74
2021/11/13 01:09:30;;;;;;;80.15;43.38;;;4.70;99.90;;;;;;2106057;28;20032;-74
2021/11/13 01:10:32;;;;;;;83.40;44.00;;;4.70;99.90;;;;;;2105964;28;20035;-74
2021/11/13 01:11:33;;;;;;;82.18;43.65;;;4.70;99.90;;;;;;2106028;28;20092;-74
2021/11/13 01:12:34;;;;;;;84.40;44.55;;;4.70;99.90;;;;;;2106110;28;20036;-76
2021/11/13 01:13:35;;;;;;;82.13;43.53;;;4.70;99.90;;;;;;2105972;28;20106;-74
2021/11/13 01:14:39;;;;;;;85.07;43.58;;;4.70;99.90;;;;;;2106426;28;20024;-75
2021/11/13 01:15:41;;;;;;;79.80;42.60;;;4.70;99.90;;;;;;2105904;28;20035;-74
2021/11/13 01:16:42;;;;;;;80.68;43.20;;;4.60;99.90;;;;;;2097457;28;20029;-74
2021/11/13 01:17:43;;;;;;;82.80;44.38;;;4.60;99.90;;;;;;2105661;28;20040;-75
2021/11/13 01:18:44;;;;;;;80.97;43.60;;;4.60;99.90;;;;;;2106447;28;20020;-75
2021/11/13 01:19:47;;;;;;;81.65;44.50;;;4.60;99.90;;;;;;2106210;28;20047;-73
2021/11/13 01:20:47;;;;;;;81.28;43.55;;;4.60;99.90;;;;;;2105786;28;20035;-73
2021/11/13 01:21:48;;;;;;;81.20;44.53;;;4.60;99.90;;;;;;2107549;28;20119;-74
2021/11/13 01:22:50;;;;;;;86.25;45.22;;;4.60;99.90;;;;;;2106871;28;20503;-74
2021/11/13 01:23:51;;;;;;;81.63;43.20;;;4.60;99.90;;;;;;2107814;28;20055;-74
2021/11/13 01:24:54;;;;;;;80.00;43.58;;;4.60;99.90;;;;;;2107646;28;20035;-74
2021/11/13 01:25:55;;;;;;;79.97;44.67;;;4.60;99.90;;;;;;2107600;28;20081;-74
2021/11/13 01:26:55;;;;;;;85.07;45.05;;;4.60;99.90;;;;;;2106780;28;20114;-75
2021/11/13 01:27:57;;;;;;;82.38;44.42;;;4.60;99.90;;;;;;2106134;28;20114;-75
2021/11/13 01:28:57;;;;;;;79.43;43.42;;;4.60;99.90;;;;;;2106306;28;20040;-74
2021/11/13 01:29:58;;;;;;;79.38;43.53;;;4.60;99.90;;;;;;2105068;28;20081;-74
2021/11/13 01:31:00;;;;;;;85.32;44.13;;;4.50;99.90;;;;;;2105907;28;20024;-74
2021/11/13 01:32:01;;;;;;;82.30;43.67;;;4.60;99.90;;;;;;2105496;28;20028;-74
2021/11/13 01:33:03;;;;;;;82.28;44.47;;;4.60;99.90;;;;;;2106048;28;20094;-75
2021/11/13 01:34:03;;;;;;;80.82;44.22;;;4.60;99.90;;;;;;2097540;28;20119;-74
2021/11/13 01:35:07;;;;;;;80.22;43.17;;;4.60;99.90;;;;;;2105853;28;20020;-74
2021/11/13 01:36:08;;;;;;;81.38;45.00;;;4.60;99.90;;;;;;2106369;28;20039;-74
2021/11/13 01:37:10;;;;;;;79.10;42.70;;;4.60;99.90;;;;;;2106345;28;20031;-74
2021/11/13 01:38:10;;;;;;;83.45;44.90;;;4.60;99.90;;;;;;2106060;28;20054;-74
2021/11/13 01:39:11;;;;;;;84.47;45.25;;;4.60;99.90;;;;;;2105461;28;20036;-74
2021/11/13 01:40:15;;;;;;;82.75;44.40;;;4.60;99.90;;;;;;2104637;28;20130;-74
2021/11/13 01:41:17;;;;;;;83.07;44.70;;;4.60;99.90;;;;;;2096836;28;20059;-74
2021/11/13 01:42:17;;;;;;;78.07;43.35;;;4.70;99.90;;;;;;2105327;28;20016;-75
2021/11/13 01:43:18;;;;;;;81.78;44.03;;;4.70;99.90;;;;;;2105340;28;20107;-74
2021/11/13 01:44:18;;;;;;;79.93;43.83;;;4.70;99.90;;;;;;2096861;28;20032;-76
2021/11/13 01:45:19;;;;;;;83.53;45.47;;;4.70;99.90;;;;;;2096588;28;20037;-74
2021/11/13 01:46:20;;;;;;;84.50;44.53;;;4.70;99.90;;;;;;2105183;28;20503;-75
2021/11/13 01:47:22;;;;;;;80.55;43.72;;;4.70;99.90;;;;;;2105581;28;20106;-73
2021/11/13 01:48:22;;;;;;;77.88;43.95;;;4.70;99.90;;;;;;2105143;28;20089;-74
2021/11/13 01:49:27;;;;;;;77.93;43.20;;;4.70;99.90;;;;;;2105044;28;20020;-74
2021/11/13 01:50:35;;;;;;;81.90;45.28;;;4.70;99.90;;;;;;2105267;28;20472;-74
2021/11/13 01:51:36;;;;;;;80.40;43.55;;;4.70;99.90;;;;;;2104741;28;20106;-73
2021/11/13 01:52:36;;;;;;;80.40;43.95;;;4.80;99.90;;;;;;2105147;28;20016;-73
2021/11/13 01:53:37;;;;;;;76.22;42.33;;;4.80;99.90;;;;;;2105699;28;20098;-74
2021/11/13 01:54:40;;;;;;;82.18;44.22;;;4.80;99.90;;;;;;2105598;28;20031;-73
2021/11/13 01:55:41;;;;;;;80.45;43.75;;;4.80;99.90;;;;;;2104787;28;20024;-75
2021/11/13 01:56:42;;;;;;;74.70;42.25;;;4.80;99.90;;;;;;2105863;28;20403;-74
2021/11/13 01:57:45;;;;;;;78.45;44.03;;;4.80;99.90;;;;;;2105752;28;20024;-74
2021/11/13 01:58:48;;;;;;;78.63;43.33;;;4.80;99.90;;;;;;2104997;28;20407;-74
2021/11/13 01:59:51;;;;;;;77.63;42.53;;;4.80;99.90;;;;;;2105536;28;20030;-74
2021/11/13 02:00:54;;;;;;;74.47;42.00;;;4.80;99.90;;;;;;2105496;28;20427;-74
2021/11/13 02:01:55;;;;;;;76.45;42.33;;;4.80;99.90;;;;;;2105624;28;20107;-74
2021/11/13 02:02:55;;;;;;;80.13;43.95;;;4.80;99.90;;;;;;2105984;28;20430;-75
2021/11/13 02:03:57;;;;;;;80.38;44.15;;;4.80;99.90;;;;;;2105690;28;20028;-74
2021/11/13 02:05:00;;;;;;;80.78;44.00;;;4.80;99.90;;;;;;2104999;28;20127;-74
2021/11/13 02:06:00;;;;;;;74.28;42.15;;;4.80;99.90;;;;;;2096829;28;20396;-74
2021/11/13 02:07:01;;;;;;;78.65;43.65;;;4.80;99.90;;;;;;2105262;28;20526;-74
2021/11/13 02:08:03;;;;;;;77.40;42.70;;;4.80;99.90;;;;;;2105750;28;20085;-74
2021/11/13 02:09:08;;;;;;;79.45;43.30;;;4.80;99.90;;;;;;2105868;28;20031;-74
2021/11/13 02:10:11;;;;;;;79.28;43.80;;;4.80;99.90;;;;;;2105567;28;20458;-74
2021/11/13 02:11:15;;;;;;;76.85;42.00;;;4.80;99.90;;;;;;2106012;28;20111;-75
2021/11/13 02:12:16;;;;;;;77.65;42.53;;;4.80;99.90;;;;;;2106134;28;20067;-75
2021/11/13 02:13:16;;;;;;;82.25;44.03;;;4.80;99.90;;;;;;2096644;28;20400;-74
2021/11/13 02:14:17;;;;;;;77.38;44.20;;;4.80;99.90;;;;;;2096871;28;20391;-74
2021/11/13 02:15:18;;;;;;;75.85;41.70;;;4.80;99.90;;;;;;2105753;28;20032;-74
2021/11/13 02:16:19;;;;;;;75.85;41.67;;;4.80;99.90;;;;;;2105730;28;20043;-73
2021/11/13 02:17:20;;;;;;;74.30;41.42;;;4.80;99.90;;;;;;2105759;28;20031;-73
2021/11/13 02:18:20;;;;;;;80.32;44.17;;;4.80;99.90;;;;;;2105407;28;20113;-73
2021/11/13 02:19:21;;;;;;;78.55;43.75;;;4.80;99.90;;;;;;2096806;28;20462;-73
2021/11/13 02:20:30;;;;;;;80.47;44.20;;;4.90;99.90;;;;;;2096297;28;20039;-74
2021/11/13 02:21:32;;;;;;;81.32;43.78;;;4.90;99.90;;;;;;2105640;28;20028;-75
2021/11/13 02:22:32;;;;;;;81.18;44.35;;;4.80;99.90;;;;;;2106216;28;20032;-75
2021/11/13 02:23:33;;;;;;;83.82;45.75;;;4.90;99.90;;;;;;2106505;28;20130;-73
2021/11/13 02:24:34;;;;;;;76.45;43.08;;;4.90;99.90;;;;;;2106289;28;20035;-75
2021/11/13 02:25:34;;;;;;;80.75;43.97;;;4.80;99.90;;;;;;2105906;28;20495;-74
2021/11/13 02:26:35;;;;;;;78.55;43.88;;;4.80;99.90;;;;;;2105703;28;20577;-74
2021/11/13 02:27:36;;;;;;;76.82;42.72;;;4.80;99.90;;;;;;2106046;28;20097;-73
2021/11/13 02:28:37;;;;;;;74.45;41.92;;;4.80;99.90;;;;;;2105567;28;20016;-74
2021/11/13 02:29:37;;;;;;;78.00;43.60;;;4.80;99.90;;;;;;2105949;28;20040;-74
2021/11/13 02:30:39;;;;;;;79.40;44.22;;;4.80;99.90;;;;;;2105547;28;20020;-75
2021/11/13 02:31:43;;;;;;;79.13;44.30;;;4.80;99.90;;;;;;2105570;28;20467;-74
2021/11/13 02:32:44;;;;;;;80.22;43.95;;;4.80;99.90;;;;;;2100976;28;20035;-74
2021/11/13 02:33:44;;;;;;;76.80;42.40;;;4.80;99.90;;;;;;2097457;28;20497;-74
2021/11/13 02:34:45;;;;;;;79.95;44.13;;;4.80;99.90;;;;;;2105330;28;20024;-74
2021/11/13 02:35:47;;;;;;;83.68;45.95;;;4.80;99.90;;;;;;2105559;28;20190;-74
2021/11/13 02:36:48;;;;;;;80.78;44.45;;;4.80;99.90;;;;;;2105352;28;20020;-74
2021/11/13 02:37:49;;;;;;;83.18;45.22;;;4.70;99.90;;;;;;2105218;28;20054;-74
2021/11/13 02:38:54;;;;;;;76.75;43.92;;;4.70;99.90;;;;;;2104508;28;20127;-73
2021/11/13 02:39:55;;;;;;;78.25;43.58;;;4.70;99.90;;;;;;2104996;28;20028;-74
2021/11/13 02:40:58;;;;;;;81.22;44.30;;;4.70;99.90;;;;;;2105191;28;20080;-75
2021/11/13 02:41:59;;;;;;;81.43;45.33;;;4.70;99.90;;;;;;2105182;28;20127;-74
2021/11/13 02:43:01;;;;;;;82.10;45.03;;;4.60;99.90;;;;;;2105289;28;20131;-74
2021/11/13 02:44:04;;;;;;;82.38;45.35;;;4.60;99.90;;;;;;2105277;28;20027;-74
2021/11/13 02:45:08;;;;;;;80.32;44.38;;;4.60;99.90;;;;;;2105266;28;20032;-74
2021/11/13 02:46:09;;;;;;;77.57;42.85;;;4.60;99.90;;;;;;2104892;28;20028;-76
2021/11/13 02:47:10;;;;;;;75.57;42.80;;;4.60;99.90;;;;;;2104740;28;20477;-73
2021/11/13 02:48:12;;;;;;;74.80;43.15;;;4.60;99.90;;;;;;2104795;28;20024;-75
2021/11/13 02:49:16;;;;;;;75.43;42.75;;;4.60;99.90;;;;;;2096302;28;20024;-74
2021/11/13 02:50:18;;;;;;;82.80;44.60;;;4.50;99.90;;;;;;2096105;28;20104;-75
2021/11/13 02:51:19;;;;;;;82.60;46.15;;;4.50;99.90;;;;;;2104869;28;20399;-74
2021/11/13 02:52:20;;;;;;;82.55;45.28;;;4.50;99.90;;;;;;2104522;28;20028;-74
2021/11/13 02:53:23;;;;;;;81.43;44.72;;;4.50;99.90;;;;;;2104813;28;20028;-76
2021/11/13 02:54:24;;;;;;;80.95;44.50;;;4.50;99.90;;;;;;2104711;28;20032;-74
2021/11/13 02:55:26;;;;;;;79.80;44.47;;;4.50;99.90;;;;;;2096281;28;20056;-74
2021/11/13 02:56:27;;;;;;;80.53;44.22;;;4.50;99.90;;;;;;2105128;28;20391;-74
2021/11/13 02:57:30;;;;;;;81.28;44.72;;;4.40;99.90;;;;;;2105061;28;20029;-72
2021/11/13 02:58:32;;;;;;;80.68;43.95;;;4.40;99.90;;;;;;2097185;28;20035;-74
2021/11/13 02:59:33;;;;;;;79.30;44.50;;;4.40;99.90;;;;;;2105127;28;20365;-72
2021/11/13 03:02:56;;;;;;;83.70;43.25;;;4.30;99.90;;;;;;2105766;28;20024;-73
2021/11/13 03:06:19;;;;;;;78.88;41.25;;;4.30;99.90;;;;;;2105789;28;20039;-73
2021/11/13 03:07:20;;;;;;;85.10;43.72;;;4.20;99.90;;;;;;2106237;28;20047;-73
2021/11/13 03:08:24;;;;;;;85.50;44.63;;;4.30;99.90;;;;;;2106612;28;20475;-73
2021/11/13 03:09:24;;;;;;;82.95;44.42;;;4.30;99.90;;;;;;2107051;28;20040;-75
2021/11/13 03:10:31;;;;;;;84.45;44.55;;;4.20;99.90;;;;;;2106395;28;20035;-74
2021/11/13 03:11:32;;;;;;;84.75;44.67;;;4.20;99.90;;;;;;2106296;28;20115;-73
2021/11/13 03:12:32;;;;;;;81.07;44.33;;;4.30;99.90;;;;;;2098355;28;20040;-73
2021/11/13 03:13:35;;;;;;;84.13;45.50;;;4.30;99.90;;;;;;2106691;28;20031;-73
2021/11/13 03:14:35;;;;;;;86.45;45.38;;;4.30;99.90;;;;;;2106808;28;20031;-75
2021/11/13 03:15:36;;;;;;;81.75;44.33;;;4.30;99.90;;;;;;2107393;28;20395;-75
2021/11/13 03:16:37;;;;;;;78.10;42.35;;;4.30;99.90;;;;;;2106743;28;20059;-74
2021/11/13 03:17:38;;;;;;;80.28;42.47;;;4.20;99.90;;;;;;2097455;28;20029;-72
2021/11/13 03:18:39;;;;;;;83.22;43.85;;;4.20;99.90;;;;;;2098196;28;20024;-73
2021/11/13 03:19:40;;;;;;;83.25;43.97;;;4.20;99.90;;;;;;2107177;28;20016;-73
2021/11/13 03:20:41;;;;;;;79.35;42.35;;;4.20;99.90;;;;;;2107382;28;20591;-73
2021/11/13 03:21:42;;;;;;;85.22;45.50;;;4.20;99.90;;;;;;2106847;28;20683;-73
2021/11/13 03:22:42;;;;;;;82.68;44.20;;;4.20;99.90;;;;;;2107318;28;20031;-77
2021/11/13 03:23:46;;;;;;;86.50;44.75;;;4.20;99.90;;;;;;2107149;28;20066;-73
2021/11/13 03:24:47;;;;;;;84.53;44.50;;;4.20;99.90;;;;;;2106878;28;20491;-73
2021/11/13 03:25:57;;;;;;;85.55;44.03;;;4.20;99.90;;;;;;2107208;28;20028;-73
2021/11/13 03:26:59;;;;;;;87.72;44.80;;;4.20;99.90;;;;;;2107114;28;20027;-75
2021/11/13 03:28:04;;;;;;;84.32;44.92;;;4.20;99.90;;;;;;2106650;28;20020;-74
2021/11/13 03:29:14;;;;;;;83.90;43.97;;;4.20;99.90;;;;;;2091215;28;20071;-73
2021/11/13 03:30:15;;;;;;;80.65;42.65;;;4.20;99.90;;;;;;2099638;28;20028;-73
2021/11/13 03:31:16;;;;;;;78.38;41.85;;;4.20;99.90;;;;;;2097969;28;20098;-72
2021/11/13 03:32:16;;;;;;;78.60;42.70;;;4.20;99.90;;;;;;2098343;28;20029;-74
2021/11/13 03:33:18;;;;;;;82.28;42.60;;;4.10;99.90;;;;;;2106710;28;20036;-73
2021/11/13 03:34:18;;;;;;;80.75;42.17;;;4.20;99.90;;;;;;2106518;28;20162;-74
2021/11/13 03:35:30;;;;;;;84.45;43.35;;;4.20;99.90;;;;;;2097666;28;20866;-73
2021/11/13 03:36:32;;;;;;;80.95;43.22;;;4.20;99.90;;;;;;2099775;28;20522;-74
2021/11/13 03:37:33;;;;;;;82.55;42.65;;;4.20;99.90;;;;;;2098279;28;20020;-74
2021/11/13 03:38:36;;;;;;;78.78;41.28;;;4.20;99.90;;;;;;2098175;28;20760;-73
2021/11/13 03:39:36;;;;;;;80.85;42.03;;;4.20;99.90;;;;;;2106627;28;20035;-74
2021/11/13 03:40:41;;;;;;;80.50;41.60;;;4.20;99.90;;;;;;2106545;28;20043;-73
2021/11/13 03:41:41;;;;;;;82.15;42.85;;;4.20;99.90;;;;;;2106398;28;20067;-73
2021/11/13 03:42:42;;;;;;;79.28;41.95;;;4.20;99.90;;;;;;2098491;28;20032;-73
2021/11/13 03:43:43;;;;;;;81.43;42.53;;;4.20;99.90;;;;;;2098308;28;20508;-74
2021/11/13 03:44:44;;;;;;;77.82;40.95;;;4.20;99.90;;;;;;2097760;28;20017;-73
2021/11/13 03:45:46;;;;;;;82.47;43.40;;;4.20;99.90;;;;;;2106822;28;20024;-75
2021/11/13 03:46:47;;;;;;;80.95;42.22;;;4.20;99.90;;;;;;2106394;28;20027;-73
2021/11/13 03:47:48;;;;;;;82.28;42.40;;;4.20;99.90;;;;;;2106476;28;20024;-73
2021/11/13 03:48:52;;;;;;;76.70;40.50;;;4.30;99.90;;;;;;2100923;28;20029;-72
2021/11/13 03:49:53;;;;;;;81.70;42.38;;;4.20;99.90;;;;;;2098275;28;20035;-75
2021/11/13 03:50:54;;;;;;;78.22;40.83;;;4.30;99.90;;;;;;2097954;28;20491;-73
2021/11/13 03:51:54;;;;;;;77.35;40.58;;;4.30;99.90;;;;;;2097910;28;20136;-73
2021/11/13 03:52:56;;;;;;;77.25;40.75;;;4.30;99.90;;;;;;2098688;28;20024;-73
2021/11/13 03:53:56;;;;;;;78.60;41.17;;;4.30;99.90;;;;;;2098714;28;20036;-73
2021/11/13 03:54:57;;;;;;;78.05;40.20;;;4.30;99.90;;;;;;2098187;28;20052;-73
2021/11/13 03:55:58;;;;;;;78.53;41.30;;;4.30;99.90;;;;;;2098618;28;20557;-73
2021/11/13 03:56:59;;;;;;;77.32;40.42;;;4.30;99.90;;;;;;2097878;28;20501;-72
2021/11/13 03:58:01;;;;;;;74.95;39.17;;;4.30;99.90;;;;;;2097886;28;20036;-73
2021/11/13 03:59:05;;;;;;;74.72;39.30;;;4.40;99.90;;;;;;2097922;28;20050;-73
2021/11/13 04:00:07;;;;;;;74.25;38.65;;;4.30;99.90;;;;;;2098079;28;20458;-73
2021/11/13 04:01:13;;;;;;;73.10;38.90;;;4.30;99.90;;;;;;2098228;28;20028;-75
2021/11/13 04:02:14;;;;;;;73.43;37.92;;;4.40;99.90;;;;;;2097987;28;20454;-72
2021/11/13 04:03:15;;;;;;;74.53;39.17;;;4.40;99.90;;;;;;2097950;28;20040;-73
2021/11/13 04:04:16;;;;;;;73.63;38.35;;;4.30;99.90;;;;;;2098665;28;20056;-74
2021/11/13 04:05:17;;;;;;;68.70;37.25;;;4.40;99.90;;;;;;2097959;28;20068;-73
2021/11/13 04:06:18;;;;;;;70.25;37.33;;;4.40;99.90;;;;;;2098524;28;20081;-72
2021/11/13 04:07:18;;;;;;;65.90;35.30;;;4.30;99.90;;;;;;2098582;28;20086;-73
2021/11/13 04:08:19;;;;;;;70.93;37.17;;;4.30;99.90;;;;;;2098584;28;20028;-73
2021/11/13 04:09:21;;;;;;;74.70;38.63;;;4.40;99.90;;;;;;2098621;28;20016;-72
2021/11/13 04:10:22;;;;;;;69.40;36.60;;;4.40;99.90;;;;;;2098571;28;20120;-73
2021/11/13 04:11:22;;;;;;;69.60;37.80;;;4.40;99.90;;;;;;2098265;28;20064;-73
2021/11/13 04:12:23;;;;;;;72.57;37.33;;;4.40;99.90;;;;;;2097924;28;20078;-73
2021/11/13 04:13:24;;;;;;;68.03;36.33;;;4.40;99.90;;;;;;2098057;28;20067;-74
2021/11/13 04:14:25;;;;;;;69.85;37.47;;;4.40;99.90;;;;;;2098356;28;20013;-73
2021/11/13 04:15:26;;;;;;;66.82;35.78;;;4.40;99.90;;;;;;2098026;28;20369;-74
2021/11/13 04:16:27;;;;;;;65.28;35.30;;;4.40;99.90;;;;;;2097920;28;20028;-73
2021/11/13 04:17:30;;;;;;;65.32;35.10;;;4.40;99.90;;;;;;2097700;28;20074;-74
2021/11/13 04:18:30;;;;;;;67.25;35.80;;;4.40;99.90;;;;;;2097107;28;20017;-72
2021/11/13 04:19:31;;;;;;;65.20;35.25;;;4.40;99.90;;;;;;2097937;28;20063;-73
2021/11/13 04:20:32;;;;;;;64.32;34.30;;;4.40;99.90;;;;;;2098448;28;20029;-74
2021/11/13 04:21:33;;;;;;;63.08;34.17;;;4.50;99.90;;;;;;2097838;28;20051;-73
2021/11/13 04:22:33;;;;;;;63.95;35.20;;;4.50;99.90;;;;;;2098063;28;20025;-74
2021/11/13 04:23:36;;;;;;;62.17;34.47;;;4.40;99.90;;;;;;2098062;28;20029;-73
2021/11/13 04:24:37;;;;;;;62.08;33.33;;;4.50;99.90;;;;;;2097196;28;20082;-73
2021/11/13 04:25:38;;;;;;;66.05;35.00;;;4.50;99.90;;;;;;2097548;28;20450;-73
2021/11/13 04:26:38;;;;;;;62.50;33.63;;;4.50;99.90;;;;;;2097668;28;20032;-74
2021/11/13 04:27:39;;;;;;;59.53;32.15;;;4.50;99.90;;;;;;2097474;28;20017;-73
2021/11/13 04:28:40;;;;;;;62.88;33.30;;;4.50;99.90;;;;;;2098121;28;20032;-74
2021/11/13 04:29:41;;;;;;;60.28;32.97;;;4.50;99.90;;;;;;2098105;28;20111;-73
2021/11/13 04:30:44;;;;;;;60.08;33.05;;;4.50;99.90;;;;;;2098239;28;20008;-73
2021/11/13 04:31:45;;;;;;;65.20;34.25;;;4.50;99.90;;;;;;2097083;28;20024;-73
2021/11/13 04:32:48;;;;;;;61.47;33.25;;;4.50;99.90;;;;;;2097349;28;20024;-73
2021/11/13 04:33:51;;;;;;;61.38;33.50;;;4.50;99.90;;;;;;2089275;28;20021;-73
2021/11/13 04:35:03;;;;;;;59.85;32.30;;;4.50;99.90;;;;;;2081277;28;20128;-73
2021/11/13 04:36:09;;;;;;;56.95;31.65;;;4.50;99.90;;;;;;2097786;28;20508;-73
2021/11/13 04:37:18;;;;;;;58.75;31.00;;;4.50;99.90;;;;;;2097766;28;20112;-73
2021/11/13 04:38:19;;;;;;;62.88;33.28;;;4.50;99.90;;;;;;2090296;28;20108;-72
2021/11/13 04:39:23;;;;;;;60.97;32.75;;;4.50;99.90;;;;;;2097534;28;20035;-75
2021/11/13 04:40:31;;;;;;;58.75;31.90;;;4.50;99.90;;;;;;2097530;28;20431;-73
2021/11/13 04:41:33;;;;;;;60.17;32.83;;;4.50;99.90;;;;;;2097181;28;20040;-73
2021/11/13 04:42:33;;;;;;;55.33;31.20;;;4.50;99.90;;;;;;2089489;28;20028;-73
2021/11/13 04:43:35;;;;;;;59.80;32.15;;;4.50;99.90;;;;;;2097434;28;20180;-72
2021/11/13 04:44:35;;;;;;;60.90;32.72;;;4.50;99.90;;;;;;2096924;28;20036;-73
2021/11/13 04:45:38;;;;;;;60.50;31.88;;;4.50;99.90;;;;;;2097436;28;20013;-74
2021/11/13 04:46:39;;;;;;;61.13;33.03;;;4.50;99.90;;;;;;2098279;28;20081;-74
2021/11/13 04:47:40;;;;;;;60.17;32.20;;;4.50;99.90;;;;;;2097331;28;20028;-73
2021/11/13 04:48:41;;;;;;;58.10;31.92;;;4.50;99.90;;;;;;2089140;28;20036;-74
2021/11/13 04:49:42;;;;;;;59.03;31.95;;;4.50;99.90;;;;;;2097288;28;20030;-73
2021/11/13 04:50:42;;;;;;;56.45;31.88;;;4.50;99.90;;;;;;2097185;28;20589;-73
2021/11/13 04:51:43;;;;;;;59.90;31.92;;;4.50;99.90;;;;;;2096892;28;20024;-73
2021/11/13 04:52:46;;;;;;;59.17;32.33;;;4.60;99.90;;;;;;2089287;28;20028;-73
2021/11/13 04:53:46;;;;;;;57.53;31.23;;;4.60;99.90;;;;;;2097411;28;20510;-73
2021/11/13 04:54:47;;;;;;;58.97;31.33;;;4.60;99.90;;;;;;2097784;28;20016;-74
2021/11/13 04:55:47;;;;;;;56.63;30.77;;;4.60;99.90;;;;;;2098155;28;20036;-73
2021/11/13 04:56:50;;;;;;;59.17;31.63;;;4.60;99.90;;;;;;2098162;28;20074;-73
2021/11/13 04:57:51;;;;;;;58.38;31.38;;;4.60;99.90;;;;;;2098069;28;20159;-75
2021/11/13 04:58:52;;;;;;;56.78;31.42;;;4.60;99.90;;;;;;2098304;28;20553;-73
2021/11/13 04:59:52;;;;;;;59.53;31.25;;;4.60;99.90;;;;;;2097355;28;20507;-73
2021/11/13 05:00:53;;;;;;;55.05;30.65;;;4.60;99.90;;;;;;2097563;28;20042;-73
2021/11/13 05:01:53;;;;;;;56.30;30.75;;;4.60;99.90;;;;;;2097775;28;20031;-74
2021/11/13 05:02:55;;;;;;;54.83;30.48;;;4.60;99.90;;;;;;2097997;28;20029;-73
2021/11/13 05:03:55;;;;;;;56.83;30.77;;;4.60;99.90;;;;;;2098214;28;20484;-74
2021/11/13 05:04:56;;;;;;;55.70;30.92;;;4.60;99.90;;;;;;2097132;28;20049;-73
2021/11/13 05:05:57;;;;;;;57.58;31.50;;;4.60;99.90;;;;;;2089028;28;20151;-73
2021/11/13 05:07:00;;;;;;;55.33;30.70;;;4.60;99.90;;;;;;2089582;28;20151;-74
2021/11/13 05:08:01;;;;;;;58.38;30.30;;;4.60;99.90;;;;;;2097264;28;20106;-73
2021/11/13 05:09:01;;;;;;;54.45;30.58;;;4.60;99.90;;;;;;2097054;28;20055;-74
2021/11/13 05:10:03;;;;;;;54.65;29.75;;;4.70;99.90;;;;;;2097421;28;20028;-73
2021/11/13 05:11:03;;;;;;;56.22;30.45;;;4.70;99.90;;;;;;2096909;28;20072;-76
2021/11/13 05:12:04;;;;;;;53.33;29.85;;;4.70;99.90;;;;;;2096880;28;20079;-73
2021/11/13 05:13:05;;;;;;;53.67;28.90;;;4.70;99.90;;;;;;2097538;28;20020;-73
2021/11/13 05:14:07;;;;;;;54.47;30.25;;;4.70;99.90;;;;;;2097718;28;20028;-72
2021/11/13 05:15:09;;;;;;;52.85;29.67;;;4.70;99.90;;;;;;2097147;28;20131;-74
2021/11/13 05:16:09;;;;;;;53.05;29.23;;;4.70;99.90;;;;;;2097320;28;20032;-72
2021/11/13 05:17:10;;;;;;;54.03;29.17;;;4.70;99.90;;;;;;2097509;28;20150;-73
2021/11/13 05:18:11;;;;;;;53.13;28.85;;;4.70;99.90;;;;;;2098079;28;20396;-74
2021/11/13 05:19:12;;;;;;;54.53;29.10;;;4.70;99.90;;;;;;2097711;28;20861;-72
2021/11/13 05:20:15;;;;;;;55.35;29.35;;;4.70;99.90;;;;;;2096621;28;20040;-73